createdAt,value
2023-02-18T00:01:42.901Z,7.20
2023-02-18T00:03:44.841Z,12.90
2023-02-18T00:05:46.584Z,22.50
2023-02-18T00:07:48.311Z,26.80
2023-02-18T00:09:50.043Z,41.80
2023-02-18T00:11:51.939Z,48.20
2023-02-18T00:13:55.533Z,57.00
2023-02-18T00:16:02.306Z,60.80
2023-02-18T00:18:04.374Z,62.90
2023-02-18T00:20:07.246Z,70.60
2023-02-18T00:22:08.905Z,69.20
2023-02-18T00:24:15.293Z,61.30
2023-02-18T00:26:19.158Z,64.80
2023-02-18T00:28:20.777Z,58.90
2023-02-18T00:30:22.442Z,61.30
2023-02-18T00:32:24.148Z,69.30
2023-02-18T00:34:25.894Z,68.50
2023-02-18T00:36:28.735Z,70.60
2023-02-18T00:38:30.420Z,70.50
2023-02-18T00:40:32.205Z,76.50
2023-02-18T00:42:34.199Z,62.70
2023-02-18T00:44:35.959Z,63.90
2023-02-18T00:46:38.282Z,61.30
2023-02-18T00:48:40.054Z,67.30
2023-02-18T00:50:41.751Z,63.50
2023-02-18T00:52:43.644Z,64.90
2023-02-18T00:54:45.276Z,67.30
2023-02-18T00:56:47.008Z,68.50
2023-02-18T00:58:49.702Z,60.00
2023-02-18T01:00:52.331Z,53.60
2023-02-18T01:02:54.579Z,45.70
2023-02-18T01:04:56.245Z,32.40
2023-02-18T01:06:57.859Z,30.90
2023-02-18T01:08:59.496Z,26.20
2023-02-18T01:11:03.995Z,29.80
2023-02-18T01:13:05.729Z,24.40
2023-02-18T01:15:08.502Z,22.80
2023-02-18T01:17:10.442Z,20.20
2023-02-18T01:19:12.098Z,19.80
2023-02-18T01:21:13.761Z,25.10
2023-02-18T01:23:15.895Z,24.40
2023-02-18T01:25:17.725Z,25.20
2023-02-18T01:27:19.570Z,22.20
2023-02-18T01:29:21.226Z,21.20
2023-02-18T01:31:23.016Z,20.00
2023-02-18T01:33:24.809Z,16.00
2023-02-18T01:35:27.375Z,15.20
2023-02-18T01:37:29.450Z,15.30
2023-02-18T01:39:31.146Z,14.60
2023-02-18T01:41:32.924Z,17.60
2023-02-18T01:43:35.956Z,17.80
2023-02-18T01:45:45.735Z,21.90
2023-02-18T01:47:47.329Z,23.70
2023-02-18T01:49:53.018Z,21.00
2023-02-18T01:52:00.134Z,21.30
2023-02-18T01:54:28.880Z,22.10
2023-02-18T01:57:05.702Z,25.10
2023-02-18T01:59:18.216Z,25.90
2023-02-18T02:01:20.106Z,29.80
2023-02-18T02:03:22.002Z,26.20
2023-02-18T02:05:23.663Z,26.70
2023-02-18T02:07:28.202Z,27.10
2023-02-18T02:09:32.003Z,30.80
2023-02-18T02:11:52.223Z,36.50
2023-02-18T02:14:27.088Z,39.20
2023-02-18T02:17:05.762Z,44.20
2023-02-18T02:19:25.310Z,32.40
2023-02-18T02:21:55.519Z,37.20
2023-02-18T02:24:09.210Z,38.40
2023-02-18T02:26:41.651Z,47.20
2023-02-18T02:28:52.332Z,39.80
2023-02-18T02:31:14.920Z,43.30
2023-02-18T02:33:42.008Z,35.00
2023-02-18T02:36:02.313Z,34.40
2023-02-18T02:38:17.264Z,30.90
2023-02-18T02:40:30.334Z,35.20
2023-02-18T02:42:41.421Z,27.10
2023-02-18T02:44:55.268Z,32.90
2023-02-18T02:47:08.263Z,36.10
2023-02-18T02:49:36.616Z,39.30
2023-02-18T02:51:46.490Z,39.00
2023-02-18T02:53:48.264Z,43.70
2023-02-18T02:55:49.947Z,37.90
2023-02-18T02:57:56.292Z,40.40
2023-02-18T03:00:06.060Z,42.70
2023-02-18T03:02:25.757Z,47.40
2023-02-18T03:04:39.130Z,45.50
2023-02-18T03:06:59.185Z,42.10
2023-02-18T03:09:16.852Z,37.00
2023-02-18T03:11:19.179Z,31.20
2023-02-18T03:13:42.109Z,31.60
2023-02-18T03:15:57.136Z,36.90
2023-02-18T03:18:23.393Z,40.40
2023-02-18T03:20:35.242Z,41.10
2023-02-18T03:22:41.700Z,29.90
2023-02-18T03:24:46.923Z,27.00
2023-02-18T03:26:54.826Z,30.20
2023-02-18T03:29:01.652Z,25.00
2023-02-18T03:31:08.474Z,24.50
2023-02-18T03:33:13.779Z,22.90
2023-02-18T03:35:17.742Z,17.70
2023-02-18T03:37:20.732Z,18.80
2023-02-18T03:39:25.702Z,19.20
2023-02-18T03:41:27.837Z,14.10
2023-02-18T03:43:29.919Z,17.80
2023-02-18T03:45:31.764Z,26.70
2023-02-18T03:47:33.574Z,25.90
2023-02-18T03:49:35.371Z,25.90
2023-02-18T03:51:37.126Z,30.00
2023-02-18T03:53:38.912Z,27.10
2023-02-18T03:55:40.946Z,33.00
2023-02-18T03:57:42.720Z,38.10
2023-02-18T03:59:44.486Z,44.10
2023-02-18T04:01:46.101Z,42.60
2023-02-18T04:03:47.842Z,36.70
2023-02-18T04:05:49.874Z,34.60
2023-02-18T04:07:51.560Z,32.00
2023-02-18T04:09:53.243Z,35.40
2023-02-18T04:11:55.008Z,44.80
2023-02-18T04:13:56.641Z,42.50
2023-02-18T04:15:58.299Z,42.00
2023-02-18T04:17:59.971Z,42.60
2023-02-18T04:20:01.910Z,41.20
2023-02-18T04:22:03.649Z,45.00
2023-02-18T04:24:05.619Z,36.90
2023-02-18T04:26:07.700Z,27.30
2023-02-18T04:28:13.220Z,24.30
2023-02-18T04:30:16.768Z,27.00
2023-02-18T04:32:20.218Z,23.30
2023-02-18T04:34:22.045Z,29.40
2023-02-18T04:36:23.730Z,27.20
2023-02-18T04:38:25.396Z,25.50
2023-02-18T04:40:30.635Z,24.60
2023-02-18T04:42:32.348Z,25.40
2023-02-18T04:44:34.215Z,26.90
2023-02-18T04:46:36.275Z,20.60
2023-02-18T04:48:38.134Z,15.70
2023-02-18T04:50:39.968Z,12.10
2023-02-18T04:52:41.633Z,13.70
2023-02-18T04:54:43.273Z,12.00
2023-02-18T04:56:45.000Z,13.60
2023-02-18T04:58:46.839Z,8.60
2023-02-18T05:00:48.761Z,6.40
2023-02-18T05:02:50.511Z,1.00
2023-02-18T05:04:52.209Z,1.00
2023-02-18T05:06:54.164Z,1.00
2023-02-18T05:08:55.821Z,4.50
2023-02-18T05:10:57.437Z,1.40
2023-02-18T05:12:59.125Z,1.00
2023-02-18T05:15:00.806Z,1.00
2023-02-18T05:17:02.536Z,1.00
2023-02-18T05:19:04.574Z,1.00
2023-02-18T05:21:06.519Z,1.00
2023-02-18T05:23:08.336Z,1.00
2023-02-18T05:25:10.186Z,4.60
2023-02-18T05:27:11.910Z,8.00
2023-02-18T05:29:13.652Z,8.20
2023-02-18T05:31:15.570Z,11.60
2023-02-18T05:33:17.510Z,14.20
2023-02-18T05:35:19.184Z,16.70
2023-02-18T05:37:20.858Z,22.40
2023-02-18T05:39:22.550Z,21.10
2023-02-18T05:41:24.335Z,23.10
2023-02-18T05:43:26.114Z,26.10
2023-02-18T05:45:27.811Z,27.10
2023-02-18T05:47:29.482Z,34.40
2023-02-18T05:49:33.201Z,41.70
2023-02-18T05:51:34.892Z,44.10
2023-02-18T05:53:36.685Z,42.50
2023-02-18T05:55:39.141Z,43.20
2023-02-18T05:57:41.070Z,48.10
2023-02-18T05:59:42.769Z,53.20
2023-02-18T06:01:44.887Z,62.40
2023-02-18T06:03:46.563Z,61.80
2023-02-18T06:05:52.069Z,71.20
2023-02-18T06:07:56.348Z,75.20
2023-02-18T06:09:58.360Z,70.90
2023-02-18T06:12:00.125Z,68.90
2023-02-18T06:14:01.993Z,74.90
2023-02-18T06:16:03.798Z,76.10
2023-02-18T06:18:06.429Z,84.50
2023-02-18T06:20:08.397Z,86.10
2023-02-18T06:22:10.047Z,90.60
2023-02-18T06:24:11.768Z,90.60
2023-02-18T06:26:13.620Z,94.80
2023-02-18T06:28:15.295Z,99.00
2023-02-18T06:30:17.165Z,97.30
2023-02-18T06:32:18.942Z,96.70
2023-02-18T06:34:20.624Z,98.20
2023-02-18T06:36:22.481Z,95.80
2023-02-18T06:38:24.274Z,96.30
2023-02-18T06:40:26.279Z,93.60
2023-02-18T06:42:28.049Z,96.10
2023-02-18T06:44:29.740Z,99.40
2023-02-18T06:46:31.405Z,99.90
2023-02-18T06:48:33.810Z,99.90
2023-02-18T06:50:35.622Z,99.90
2023-02-18T06:52:38.074Z,99.90
2023-02-18T06:54:39.734Z,99.90
2023-02-18T06:56:41.456Z,99.60
2023-02-18T06:58:43.111Z,99.20
2023-02-18T07:00:45.019Z,97.70
2023-02-18T07:02:46.736Z,96.00
2023-02-18T07:04:48.555Z,93.70
2023-02-18T07:06:50.236Z,91.90
2023-02-18T07:08:51.965Z,87.60
2023-02-18T07:10:53.691Z,85.20
2023-02-18T07:12:55.436Z,77.80
2023-02-18T07:14:57.155Z,80.30
2023-02-18T07:16:58.980Z,81.70
2023-02-18T07:19:00.663Z,79.40
2023-02-18T07:21:02.280Z,83.70
2023-02-18T07:23:04.149Z,77.10
2023-02-18T07:25:06.217Z,82.60
2023-02-18T07:27:07.963Z,70.40
2023-02-18T07:29:09.681Z,79.10
2023-02-18T07:31:11.621Z,78.40
2023-02-18T07:33:14.239Z,72.10
2023-02-18T07:35:17.393Z,75.20
2023-02-18T07:37:20.745Z,68.70
2023-02-18T07:39:22.396Z,59.40
2023-02-18T07:41:24.991Z,49.00
2023-02-18T07:43:26.805Z,37.20
2023-02-18T07:45:28.526Z,35.10
2023-02-18T07:47:30.256Z,29.30
2023-02-18T07:49:32.366Z,14.40
2023-02-18T07:51:34.091Z,1.00
2023-02-18T07:53:37.008Z,1.00
2023-02-18T07:55:51.197Z,1.00
2023-02-18T07:58:00.932Z,1.00
2023-02-18T08:00:03.912Z,1.00
2023-02-18T08:02:07.568Z,1.00
2023-02-18T08:04:09.539Z,1.00
2023-02-18T08:06:29.368Z,1.00
2023-02-18T08:08:33.655Z,1.00
2023-02-18T08:10:36.316Z,1.00
2023-02-18T08:12:38.045Z,1.00
2023-02-18T08:14:40.264Z,1.00
2023-02-18T08:16:42.075Z,1.00
2023-02-18T08:18:44.115Z,1.00
2023-02-18T08:20:49.782Z,1.00
2023-02-18T08:22:51.418Z,1.00
2023-02-18T08:24:56.337Z,1.00
2023-02-18T08:27:01.431Z,1.00
2023-02-18T08:29:03.581Z,1.00
2023-02-18T08:31:05.811Z,1.00
2023-02-18T08:33:07.530Z,1.00
2023-02-18T08:35:11.384Z,1.00
2023-02-18T08:37:14.763Z,1.00
2023-02-18T08:39:16.426Z,1.00
2023-02-18T08:41:21.298Z,1.00
2023-02-18T08:43:22.941Z,1.00
2023-02-18T08:45:24.706Z,1.00
2023-02-18T08:48:16.645Z,1.00
2023-02-18T08:49:48.424Z,1.00
2023-02-18T08:51:53.124Z,1.00
2023-02-18T08:53:54.798Z,1.00
2023-02-18T08:55:56.447Z,1.00
2023-02-18T08:57:58.342Z,1.00
2023-02-18T09:00:00.185Z,1.00
2023-02-18T09:02:02.438Z,1.00
2023-02-18T09:04:04.426Z,1.00
2023-02-18T09:06:06.508Z,1.00
2023-02-18T09:08:08.296Z,99.90
2023-02-18T09:10:10.913Z,99.90
2023-02-18T09:12:12.664Z,99.90
2023-02-18T09:14:14.722Z,99.90
2023-02-18T09:16:19.603Z,99.90
2023-02-18T09:18:21.271Z,99.90
2023-02-18T09:20:23.062Z,99.90
2023-02-18T09:22:24.811Z,99.90
2023-02-18T09:24:26.524Z,1.00
2023-02-18T09:26:28.637Z,99.90
2023-02-18T09:28:30.363Z,99.90
2023-02-18T09:30:32.225Z,1.00
2023-02-18T09:32:35.277Z,1.00
2023-02-18T09:34:37.387Z,1.00
2023-02-18T09:36:39.640Z,1.00
2023-02-18T09:38:41.284Z,99.90
2023-02-18T09:40:47.137Z,99.90
2023-02-18T09:42:49.025Z,99.90
2023-02-18T09:44:59.241Z,99.90
2023-02-18T09:47:14.385Z,1.00
2023-02-18T09:49:38.306Z,28.90
2023-02-18T09:51:40.048Z,1.00
2023-02-18T09:53:45.416Z,19.90
2023-02-18T09:55:48.982Z,99.90
2023-02-18T09:57:54.626Z,99.90
2023-02-18T10:00:03.100Z,99.90
2023-02-18T10:02:10.304Z,1.00
2023-02-18T10:04:23.774Z,99.90
2023-02-18T10:06:32.937Z,1.00
2023-02-18T10:08:55.120Z,99.90
2023-02-18T10:10:57.112Z,99.90
2023-02-18T10:12:59.361Z,1.00
2023-02-18T10:15:02.062Z,1.00
2023-02-18T10:17:05.231Z,99.90
2023-02-18T10:19:39.169Z,99.90
2023-02-18T10:21:41.090Z,1.00
2023-02-18T10:23:52.039Z,99.90
2023-02-18T10:25:54.649Z,90.70
2023-02-18T10:27:58.608Z,99.90
2023-02-18T10:30:23.807Z,99.90
2023-02-18T10:32:32.773Z,99.90
2023-02-18T10:34:41.939Z,99.90
2023-02-18T10:36:51.588Z,1.00
2023-02-18T10:38:59.005Z,1.00
2023-02-18T10:41:29.525Z,1.00
2023-02-18T10:43:40.486Z,99.90
2023-02-18T10:46:21.837Z,74.20
2023-02-18T10:48:32.522Z,99.90
2023-02-18T10:50:44.330Z,1.00
2023-02-18T10:52:49.163Z,99.90
2023-02-18T10:55:00.413Z,1.00
2023-02-18T10:57:04.742Z,1.00
2023-02-18T10:59:30.302Z,1.00
2023-02-18T11:01:32.128Z,99.90
2023-02-18T11:03:46.169Z,99.90
2023-02-18T11:05:50.834Z,1.00
2023-02-18T11:07:56.815Z,99.90
2023-02-18T11:10:29.591Z,99.90
2023-02-18T11:12:47.376Z,74.60
2023-02-18T11:15:04.089Z,99.90
2023-02-18T11:17:20.842Z,99.90
2023-02-18T11:19:33.983Z,99.90
2023-02-18T11:21:37.675Z,99.90
2023-02-18T11:23:51.582Z,99.90
2023-02-18T11:26:03.469Z,66.90
2023-02-18T11:28:06.585Z,1.00
2023-02-18T11:30:25.767Z,77.50
2023-02-18T11:32:30.490Z,1.00
2023-02-18T11:34:33.403Z,1.00
2023-02-18T11:36:36.403Z,1.00
2023-02-18T11:38:46.324Z,1.00
2023-02-18T11:40:58.624Z,99.90
2023-02-18T11:43:12.301Z,99.90
2023-02-18T11:45:33.420Z,1.00
2023-02-18T11:47:37.183Z,99.90
2023-02-18T11:49:39.652Z,99.90
2023-02-18T11:51:42.196Z,1.00
2023-02-18T11:54:24.721Z,1.00
2023-02-18T11:56:29.544Z,99.90
2023-02-18T11:58:39.778Z,1.00
2023-02-18T12:00:53.796Z,99.90
2023-02-18T12:02:59.004Z,1.00
2023-02-18T12:05:24.343Z,1.00
2023-02-18T12:07:50.405Z,1.00
2023-02-18T12:09:58.559Z,99.90
2023-02-18T12:12:14.164Z,1.00
2023-02-18T12:14:21.120Z,1.00
2023-02-18T12:16:53.996Z,99.90
2023-02-18T12:19:09.424Z,1.00
2023-02-18T12:21:46.329Z,99.90
2023-02-18T12:24:22.447Z,99.90
2023-02-18T12:26:32.776Z,1.00
2023-02-18T12:28:55.892Z,99.90
2023-02-18T12:31:05.601Z,99.90
2023-02-18T12:33:31.873Z,99.90
2023-02-18T12:35:52.381Z,1.00
2023-02-18T12:38:09.542Z,1.00
2023-02-18T12:41:08.889Z,1.00
2023-02-18T12:43:30.995Z,1.00
2023-02-18T12:45:38.792Z,1.00
2023-02-18T12:48:04.487Z,1.00
2023-02-18T12:50:32.421Z,1.00
2023-02-18T12:52:57.300Z,1.00
2023-02-18T12:55:36.267Z,47.30
2023-02-18T12:58:03.507Z,99.90
2023-02-18T13:00:32.246Z,99.90
2023-02-18T13:02:36.715Z,99.90
2023-02-18T13:05:20.636Z,1.00
2023-02-18T13:07:31.408Z,99.90
2023-02-18T13:10:02.558Z,1.00
2023-02-18T13:12:14.999Z,99.90
2023-02-18T13:14:25.514Z,1.00
2023-02-18T13:16:29.256Z,1.00
2023-02-18T13:18:37.863Z,1.00
2023-02-18T13:20:51.341Z,1.00
2023-02-18T13:22:53.677Z,1.00
2023-02-18T13:24:58.935Z,1.00
2023-02-18T13:27:18.879Z,99.90
2023-02-18T13:29:32.896Z,99.90
2023-02-18T13:31:52.982Z,1.00
2023-02-18T13:34:17.390Z,99.90
2023-02-18T13:36:36.739Z,99.90
2023-02-18T13:38:51.914Z,1.00
2023-02-18T13:40:55.805Z,99.90
2023-02-18T13:43:28.225Z,99.90
2023-02-18T13:45:32.655Z,1.00
2023-02-18T13:47:45.068Z,99.90
2023-02-18T13:49:48.724Z,99.90
2023-02-18T13:51:53.622Z,99.90
2023-02-18T13:54:02.995Z,1.00
2023-02-18T13:56:17.041Z,99.90
2023-02-18T13:58:27.555Z,1.00
2023-02-18T14:00:39.818Z,99.90
2023-02-18T14:02:59.872Z,99.90
2023-02-18T14:05:08.422Z,76.70
2023-02-18T14:07:25.239Z,1.00
2023-02-18T14:09:42.807Z,1.00
2023-02-18T14:11:53.585Z,1.00
2023-02-18T14:14:32.949Z,1.00
2023-02-18T14:17:18.870Z,1.00
2023-02-18T14:19:28.898Z,69.80
2023-02-18T14:21:43.854Z,99.90
2023-02-18T14:23:59.132Z,99.90
2023-02-18T14:26:12.417Z,1.00
2023-02-18T14:28:45.271Z,1.00
2023-02-18T14:30:47.545Z,99.90
2023-02-18T14:32:52.733Z,99.90
2023-02-18T14:35:00.007Z,99.90
2023-02-18T14:37:29.627Z,1.00
2023-02-18T14:40:03.721Z,99.90
2023-02-18T14:42:43.909Z,1.00
2023-02-18T14:45:02.839Z,1.00
2023-02-18T14:47:22.743Z,1.00
2023-02-18T14:49:28.225Z,99.90
2023-02-18T14:51:33.527Z,1.00
2023-02-18T14:53:42.805Z,99.90
2023-02-18T14:55:47.745Z,99.90
2023-02-18T14:58:03.023Z,99.90
2023-02-18T15:00:05.742Z,1.00
2023-02-18T15:02:27.627Z,1.00
2023-02-18T15:04:29.799Z,1.00
2023-02-18T15:06:36.756Z,1.00
2023-02-18T15:08:40.167Z,1.00
2023-02-18T15:10:48.124Z,99.90
2023-02-18T15:12:49.871Z,99.90
2023-02-18T15:14:54.051Z,1.00
2023-02-18T15:16:56.399Z,1.00
2023-02-18T15:19:04.991Z,99.90
2023-02-18T15:21:19.994Z,99.90
2023-02-18T15:23:21.829Z,99.90
2023-02-18T15:25:25.495Z,99.90
2023-02-18T15:27:30.112Z,99.90
2023-02-18T15:29:36.159Z,99.90
2023-02-18T15:31:39.891Z,99.90
2023-02-18T15:33:47.181Z,99.90
2023-02-18T15:35:49.327Z,1.00
2023-02-18T15:37:55.921Z,1.00
2023-02-18T15:39:57.800Z,99.90
2023-02-18T15:42:06.250Z,99.90
2023-02-18T15:44:08.779Z,1.00
2023-02-18T15:46:14.604Z,1.00
2023-02-18T15:48:33.505Z,1.00
2023-02-18T15:50:38.602Z,1.00
2023-02-18T15:52:40.713Z,1.00
2023-02-18T15:54:43.185Z,1.00
2023-02-18T15:56:49.787Z,99.90
2023-02-18T15:59:07.513Z,99.90
2023-02-18T16:01:27.252Z,99.90
2023-02-18T16:03:30.974Z,99.90
2023-02-18T16:05:38.282Z,99.90
2023-02-18T16:07:52.091Z,99.90
2023-02-18T16:10:16.824Z,99.90
2023-02-18T16:12:31.518Z,1.00
2023-02-18T16:14:49.086Z,1.00
2023-02-18T16:17:03.430Z,1.00
2023-02-18T16:19:05.831Z,1.00
2023-02-18T16:21:26.019Z,1.00
2023-02-18T16:23:43.420Z,1.00
2023-02-18T16:25:49.480Z,1.00
2023-02-18T16:27:58.793Z,1.00
2023-02-18T16:30:25.449Z,1.00
2023-02-18T16:32:27.264Z,1.00
2023-02-18T16:34:29.443Z,1.00
2023-02-18T16:36:31.585Z,1.00
2023-02-18T16:38:33.707Z,1.00
2023-02-18T16:40:38.178Z,1.00
2023-02-18T16:42:40.198Z,1.00
2023-02-18T16:44:42.194Z,3.70
2023-02-18T16:46:43.910Z,1.00
2023-02-18T16:48:48.982Z,74.70
2023-02-18T16:50:52.078Z,18.70
2023-02-18T16:52:53.740Z,99.90
2023-02-18T16:54:55.537Z,94.30
2023-02-18T16:56:57.161Z,99.90
2023-02-18T16:58:59.239Z,99.90
2023-02-18T17:01:01.086Z,99.90
2023-02-18T17:03:02.887Z,99.90
2023-02-18T17:05:09.750Z,99.90
2023-02-18T17:07:16.154Z,99.90
2023-02-18T17:09:22.014Z,99.90
2023-02-18T17:11:33.039Z,99.90
2023-02-18T17:13:34.758Z,99.90
2023-02-18T17:15:36.605Z,99.90
2023-02-18T17:17:38.260Z,99.90
2023-02-18T17:19:40.118Z,99.90
2023-02-18T17:21:42.212Z,99.90
2023-02-18T17:23:44.355Z,99.90
2023-02-18T17:25:46.089Z,99.90
2023-02-18T17:27:48.142Z,99.90
2023-02-18T17:29:49.990Z,99.90
2023-02-18T17:31:55.191Z,99.90
2023-02-18T17:33:59.851Z,99.90
2023-02-18T17:36:01.520Z,99.90
2023-02-18T17:38:12.668Z,99.90
2023-02-18T17:40:23.633Z,99.90
2023-02-18T17:42:25.413Z,1.00
2023-02-18T17:44:29.031Z,1.00
2023-02-18T17:46:30.764Z,1.00
2023-02-18T17:48:32.576Z,1.00
2023-02-18T17:50:34.222Z,1.00
2023-02-18T17:52:36.307Z,1.00
2023-02-18T17:54:37.950Z,1.00
2023-02-18T17:56:39.644Z,1.00
2023-02-18T17:58:41.357Z,1.00
2023-02-18T18:00:52.769Z,1.00
2023-02-18T18:02:54.750Z,1.00
2023-02-18T18:04:56.491Z,1.00
2023-02-18T18:06:58.242Z,1.00
2023-02-18T18:08:59.936Z,1.00
2023-02-18T18:11:02.111Z,1.00
2023-02-18T18:13:17.544Z,1.00
2023-02-18T18:15:27.863Z,1.00
2023-02-18T18:17:29.718Z,1.00
2023-02-18T18:19:32.149Z,1.00
2023-02-18T18:21:35.461Z,1.00
2023-02-18T18:23:37.142Z,1.00
2023-02-18T18:25:43.412Z,1.00
2023-02-18T18:27:45.458Z,1.00
2023-02-18T18:29:47.228Z,1.00
2023-02-18T18:31:49.032Z,1.00
2023-02-18T18:33:53.113Z,1.00
2023-02-18T18:35:56.810Z,1.00
2023-02-18T18:37:59.156Z,1.00
2023-02-18T18:40:00.813Z,1.00
2023-02-18T18:42:02.618Z,1.00
2023-02-18T18:44:04.880Z,1.00
2023-02-18T18:46:06.783Z,1.00
2023-02-18T18:48:08.686Z,1.00
2023-02-18T18:50:10.529Z,1.00
2023-02-18T18:52:16.547Z,1.00
2023-02-18T18:54:18.179Z,1.00
2023-02-18T18:56:20.262Z,1.00
2023-02-18T18:58:24.352Z,1.00
2023-02-18T19:00:38.435Z,1.00
2023-02-18T19:02:41.269Z,1.00
2023-02-18T19:04:42.995Z,1.00
2023-02-18T19:06:44.744Z,1.00
2023-02-18T19:08:48.105Z,1.00
2023-02-18T19:10:54.915Z,1.00
2023-02-18T19:13:04.815Z,1.00
2023-02-18T19:15:06.883Z,1.00
2023-02-18T19:17:08.556Z,12.00
2023-02-18T19:19:11.746Z,18.90
2023-02-18T19:21:13.484Z,18.40
2023-02-18T19:23:15.240Z,30.20
2023-02-18T19:25:18.714Z,73.80
2023-02-18T19:27:20.439Z,99.90
2023-02-18T19:29:23.379Z,99.90
2023-02-18T19:31:25.323Z,99.90
2023-02-18T19:33:27.075Z,99.90
2023-02-18T19:35:31.134Z,99.90
2023-02-18T19:37:37.085Z,99.90
2023-02-18T19:39:38.835Z,99.90
2023-02-18T19:41:40.478Z,99.90
2023-02-18T19:43:44.013Z,99.90
2023-02-18T19:45:47.453Z,99.90
2023-02-18T19:47:54.489Z,99.90
2023-02-18T19:49:58.998Z,99.90
2023-02-18T19:52:04.284Z,99.90
2023-02-18T19:54:06.052Z,99.90
2023-02-18T19:56:08.057Z,99.90
2023-02-18T19:58:09.734Z,99.90
2023-02-18T20:00:13.757Z,99.90
2023-02-18T20:02:22.325Z,99.90
2023-02-18T20:04:24.132Z,99.90
2023-02-18T20:06:26.091Z,99.90
2023-02-18T20:08:27.793Z,99.90
2023-02-18T20:10:29.591Z,99.90
2023-02-18T20:12:32.015Z,99.90
2023-02-18T20:14:33.832Z,99.90
2023-02-18T20:16:35.532Z,99.90
2023-02-18T20:18:37.407Z,99.90
2023-02-18T20:20:39.094Z,99.90
2023-02-18T20:22:40.899Z,99.90
2023-02-18T20:24:43.042Z,99.90
2023-02-18T20:26:44.732Z,99.90
2023-02-18T20:28:47.050Z,99.90
2023-02-18T20:30:48.934Z,99.90
2023-02-18T20:32:50.611Z,99.90
2023-02-18T20:34:52.299Z,99.90
2023-02-18T20:36:54.198Z,99.90
2023-02-18T20:39:00.487Z,99.90
2023-02-18T20:41:09.440Z,99.90
2023-02-18T20:43:11.296Z,99.90
2023-02-18T20:45:12.908Z,99.90
2023-02-18T20:47:14.879Z,99.90
2023-02-18T20:49:19.212Z,99.90
2023-02-18T20:51:21.883Z,99.90
2023-02-18T20:53:23.794Z,99.90
2023-02-18T20:55:25.766Z,99.90
2023-02-18T20:57:28.016Z,99.90
2023-02-18T20:59:30.322Z,99.90
2023-02-18T21:01:32.754Z,99.90
2023-02-18T21:03:35.189Z,99.90
2023-02-18T21:05:36.802Z,99.90
2023-02-18T21:07:38.490Z,99.90
2023-02-18T21:09:40.195Z,99.90
2023-02-18T21:11:42.601Z,99.90
2023-02-18T21:13:47.397Z,99.90
2023-02-18T21:15:49.585Z,99.90
2023-02-18T21:17:51.318Z,99.90
2023-02-18T21:19:53.124Z,99.90
2023-02-18T21:21:54.865Z,99.90
2023-02-18T21:23:56.888Z,99.90
2023-02-18T21:26:06.756Z,99.90
2023-02-18T21:28:09.078Z,99.90
2023-02-18T21:30:11.082Z,99.90
2023-02-18T21:32:12.805Z,99.90
2023-02-18T21:34:15.776Z,99.90
2023-02-18T21:36:18.429Z,99.90
2023-02-18T21:38:20.667Z,99.90
2023-02-18T21:40:22.356Z,99.90
2023-02-18T21:42:24.099Z,99.90
2023-02-18T21:44:40.204Z,99.90
2023-02-18T21:46:43.635Z,99.90
2023-02-18T21:49:04.501Z,99.90
2023-02-18T21:51:06.149Z,99.90
2023-02-18T21:53:07.797Z,99.90
2023-02-18T21:55:10.525Z,99.90
2023-02-18T21:57:15.143Z,99.90
2023-02-18T21:59:17.503Z,99.90
2023-02-18T22:01:19.507Z,99.90
2023-02-18T22:03:21.263Z,99.90
2023-02-18T22:05:25.801Z,99.90
2023-02-18T22:07:27.836Z,99.90
2023-02-18T22:09:29.627Z,99.90
2023-02-18T22:11:32.287Z,99.90
2023-02-18T22:13:33.972Z,99.90
2023-02-18T22:15:35.669Z,99.90
2023-02-18T22:17:37.440Z,99.90
2023-02-18T22:19:39.883Z,99.90
2023-02-18T22:21:42.316Z,99.90
2023-02-18T22:23:44.051Z,99.90
2023-02-18T22:25:47.922Z,99.90
2023-02-18T22:27:49.605Z,99.90
2023-02-18T22:29:51.351Z,99.90
2023-02-18T22:31:53.716Z,99.90
2023-02-18T22:33:58.861Z,99.90
2023-02-18T22:36:02.477Z,99.90
2023-02-18T22:38:04.185Z,99.90
2023-02-18T22:40:06.234Z,99.90
2023-02-18T22:42:08.988Z,99.90
2023-02-18T22:44:15.818Z,99.90
2023-02-18T22:46:18.230Z,99.90
2023-02-18T22:48:20.149Z,99.90
2023-02-18T22:50:21.860Z,99.90
2023-02-18T22:52:23.550Z,99.90
2023-02-18T22:54:25.281Z,99.90
2023-02-18T22:56:28.731Z,99.90
2023-02-18T22:58:31.120Z,99.90
2023-02-18T23:00:33.230Z,99.90
2023-02-18T23:02:35.047Z,99.90
2023-02-18T23:04:39.562Z,99.90
2023-02-18T23:06:44.311Z,99.90
2023-02-18T23:08:46.325Z,99.90
2023-02-18T23:10:48.084Z,99.90
2023-02-18T23:12:49.745Z,99.90
2023-02-18T23:14:51.479Z,99.90
2023-02-18T23:17:14.544Z,99.90
2023-02-18T23:19:16.437Z,99.90
2023-02-18T23:21:18.118Z,99.90
2023-02-18T23:23:19.808Z,99.90
2023-02-18T23:25:21.484Z,99.90
2023-02-18T23:27:24.378Z,99.90
2023-02-18T23:29:26.132Z,99.90
2023-02-18T23:31:28.572Z,99.90
2023-02-18T23:33:30.294Z,99.90
2023-02-18T23:35:32.091Z,99.90
2023-02-18T23:37:52.488Z,99.90
2023-02-18T23:39:54.363Z,99.90
2023-02-18T23:41:56.430Z,99.90
2023-02-18T23:43:58.252Z,99.90
2023-02-18T23:46:00.020Z,99.90
2023-02-18T23:48:01.747Z,99.90
2023-02-18T23:50:03.646Z,99.90
2023-02-18T23:52:05.696Z,99.90
2023-02-18T23:54:07.895Z,99.90
2023-02-18T23:56:24.498Z,99.90
2023-02-18T23:58:26.495Z,99.90
